createdAt,value
2019-01-23T00:00:55.415Z,45.20
2019-01-23T00:01:34.464Z,44.45
2019-01-23T00:02:07.332Z,42.05
2019-01-23T00:02:40.173Z,46.05
2019-01-23T00:03:12.669Z,46.63
2019-01-23T00:03:45.177Z,45.05
2019-01-23T00:04:17.685Z,46.42
2019-01-23T00:04:50.533Z,45.52
2019-01-23T00:05:23.189Z,46.70
2019-01-23T00:05:58.541Z,44.40
2019-01-23T00:06:31.394Z,46.88
2019-01-23T00:07:04.324Z,43.98
2019-01-23T00:07:36.821Z,44.93
2019-01-23T00:08:09.317Z,43.90
2019-01-23T00:08:41.827Z,45.38
2019-01-23T00:09:14.612Z,48.87
2019-01-23T00:09:47.121Z,47.43
2019-01-23T00:10:19.940Z,42.73
2019-01-23T00:10:52.444Z,44.08
2019-01-23T00:11:25.276Z,46.73
2019-01-23T00:11:57.768Z,44.73
2019-01-23T00:12:30.612Z,45.45
2019-01-23T00:13:03.591Z,42.00
2019-01-23T00:13:36.221Z,44.30
2019-01-23T00:14:09.160Z,45.67
2019-01-23T00:14:41.648Z,44.63
2019-01-23T00:15:14.605Z,44.18
2019-01-23T00:15:50.604Z,46.53
2019-01-23T00:16:23.111Z,44.00
2019-01-23T00:16:55.601Z,46.50
2019-01-23T00:17:28.472Z,46.73
2019-01-23T00:18:01.009Z,46.48
2019-01-23T00:18:33.498Z,45.10
2019-01-23T00:19:06.000Z,48.83
2019-01-23T00:19:38.829Z,43.98
2019-01-23T00:20:11.925Z,44.30
2019-01-23T00:20:44.437Z,45.35
2019-01-23T00:21:16.935Z,46.58
2019-01-23T00:21:49.444Z,43.75
2019-01-23T00:22:22.099Z,44.13
2019-01-23T00:22:54.945Z,42.30
2019-01-23T00:23:27.484Z,42.08
2019-01-23T00:24:00.316Z,43.48
2019-01-23T00:24:33.128Z,44.83
2019-01-23T00:25:06.227Z,43.45
2019-01-23T00:25:38.729Z,43.20
2019-01-23T00:26:11.233Z,43.10
2019-01-23T00:26:43.903Z,43.80
2019-01-23T00:27:16.685Z,44.65
2019-01-23T00:27:49.197Z,43.45
2019-01-23T00:28:21.701Z,44.18
2019-01-23T00:28:54.232Z,42.27
2019-01-23T00:29:26.751Z,45.92
2019-01-23T00:29:59.609Z,43.95
2019-01-23T00:30:32.116Z,45.52
2019-01-23T00:31:04.644Z,42.58
2019-01-23T00:31:37.148Z,42.55
2019-01-23T00:32:09.653Z,42.75
2019-01-23T00:32:42.156Z,45.45
2019-01-23T00:33:14.652Z,43.00
2019-01-23T00:33:47.159Z,42.60
2019-01-23T00:34:19.694Z,45.67
2019-01-23T00:34:52.528Z,43.15
2019-01-23T00:35:25.345Z,43.20
2019-01-23T00:35:57.841Z,43.48
2019-01-23T00:36:30.950Z,42.75
2019-01-23T00:37:03.772Z,41.75
2019-01-23T00:37:36.273Z,41.60
2019-01-23T00:38:08.776Z,43.70
2019-01-23T00:38:41.631Z,41.95
2019-01-23T00:39:14.502Z,43.83
2019-01-23T00:39:47.519Z,44.50
2019-01-23T00:40:20.044Z,42.90
2019-01-23T00:40:52.544Z,44.73
2019-01-23T00:41:25.368Z,42.98
2019-01-23T00:41:58.244Z,44.40
2019-01-23T00:42:30.744Z,43.00
2019-01-23T00:43:03.353Z,39.63
2019-01-23T00:43:35.865Z,41.58
2019-01-23T00:44:08.364Z,42.65
2019-01-23T00:44:41.341Z,42.98
2019-01-23T00:45:14.436Z,42.50
2019-01-23T00:45:47.107Z,45.52
2019-01-23T00:46:19.625Z,44.75
2019-01-23T00:46:52.134Z,44.63
2019-01-23T00:47:24.629Z,44.63
2019-01-23T00:47:57.133Z,43.17
2019-01-23T00:48:29.628Z,42.15
2019-01-23T00:49:02.128Z,45.55
2019-01-23T00:49:34.628Z,42.15
2019-01-23T00:50:07.945Z,43.98
2019-01-23T00:50:40.479Z,43.02
2019-01-23T00:51:13.453Z,41.00
2019-01-23T00:51:45.968Z,43.00
2019-01-23T00:52:18.777Z,40.65
2019-01-23T00:52:51.281Z,43.92
2019-01-23T00:53:23.787Z,42.98
2019-01-23T00:53:56.287Z,43.17
2019-01-23T00:54:29.140Z,44.40
2019-01-23T00:55:01.697Z,42.75
2019-01-23T00:55:34.181Z,42.60
2019-01-23T00:56:06.764Z,43.23
2019-01-23T00:56:39.269Z,44.05
2019-01-23T00:57:12.061Z,43.20
2019-01-23T00:57:44.560Z,41.15
2019-01-23T00:58:17.068Z,42.38
2019-01-23T00:58:49.573Z,45.30
2019-01-23T00:59:22.067Z,44.40
2019-01-23T00:59:54.574Z,45.67
2019-01-23T01:00:27.196Z,43.73
2019-01-23T01:00:59.694Z,41.30
2019-01-23T01:01:32.220Z,42.78
2019-01-23T01:02:05.005Z,42.48
2019-01-23T01:02:37.504Z,44.15
2019-01-23T01:03:10.314Z,44.75
2019-01-23T01:03:44.336Z,41.80
2019-01-23T01:04:16.924Z,41.90
2019-01-23T01:04:49.416Z,42.67
2019-01-23T01:05:22.021Z,44.10
2019-01-23T01:05:54.857Z,44.35
2019-01-23T01:06:27.356Z,42.48
2019-01-23T01:07:00.245Z,40.08
2019-01-23T01:07:33.037Z,42.50
2019-01-23T01:08:05.544Z,44.40
2019-01-23T01:08:38.048Z,44.05
2019-01-23T01:09:10.549Z,43.60
2019-01-23T01:09:43.057Z,47.98
2019-01-23T01:10:16.751Z,40.55
2019-01-23T01:10:49.613Z,44.13
2019-01-23T01:11:22.117Z,42.33
2019-01-23T01:11:54.928Z,46.30
2019-01-23T01:12:27.733Z,44.15
2019-01-23T01:13:00.237Z,43.68
2019-01-23T01:13:32.745Z,48.33
2019-01-23T01:14:05.265Z,43.17
2019-01-23T01:14:37.767Z,42.70
2019-01-23T01:15:13.453Z,43.17
2019-01-23T01:15:45.339Z,44.70
2019-01-23T01:16:17.844Z,43.68
2019-01-23T01:16:50.344Z,41.98
2019-01-23T01:17:22.848Z,45.55
2019-01-23T01:17:55.809Z,44.50
2019-01-23T01:18:28.313Z,43.02
2019-01-23T01:19:00.810Z,41.23
2019-01-23T01:19:33.309Z,41.90
2019-01-23T01:20:07.630Z,42.70
2019-01-23T01:20:40.471Z,45.05
2019-01-23T01:21:12.968Z,43.23
2019-01-23T01:21:45.478Z,43.95
2019-01-23T01:22:17.987Z,42.35
2019-01-23T01:22:50.482Z,42.43
2019-01-23T01:23:23.301Z,42.17
2019-01-23T01:23:55.795Z,41.85
2019-01-23T01:24:28.301Z,44.40
2019-01-23T01:25:00.809Z,44.60
2019-01-23T01:25:33.318Z,43.25
2019-01-23T01:26:05.812Z,41.83
2019-01-23T01:26:38.662Z,42.23
2019-01-23T01:27:11.164Z,43.20
2019-01-23T01:27:44.500Z,44.80
2019-01-23T01:28:17.009Z,45.83
2019-01-23T01:28:55.836Z,44.35
2019-01-23T01:29:24.240Z,44.83
2019-01-23T01:29:56.747Z,45.55
2019-01-23T01:30:29.883Z,42.62
2019-01-23T01:31:02.838Z,44.08
2019-01-23T01:31:35.382Z,45.67
2019-01-23T01:32:07.887Z,42.60
2019-01-23T01:32:40.372Z,44.60
2019-01-23T01:33:12.884Z,45.15
2019-01-23T01:33:45.381Z,42.67
2019-01-23T01:34:17.920Z,44.48
2019-01-23T01:34:50.420Z,43.80
2019-01-23T01:35:22.930Z,41.08
2019-01-23T01:35:55.433Z,45.20
2019-01-23T01:36:27.936Z,41.13
2019-01-23T01:37:00.989Z,43.55
2019-01-23T01:37:33.852Z,40.25
2019-01-23T01:38:06.365Z,43.05
2019-01-23T01:38:39.060Z,42.83
2019-01-23T01:39:12.224Z,43.45
2019-01-23T01:39:45.120Z,42.35
2019-01-23T01:40:18.828Z,45.70
2019-01-23T01:40:51.288Z,44.30
2019-01-23T01:41:23.793Z,46.25
2019-01-23T01:41:56.292Z,41.00
2019-01-23T01:42:28.798Z,40.45
2019-01-23T01:43:01.305Z,41.92
2019-01-23T01:43:33.812Z,42.23
2019-01-23T01:44:06.312Z,43.35
2019-01-23T01:44:38.813Z,40.20
2019-01-23T01:45:12.013Z,44.40
2019-01-23T01:45:44.562Z,42.67
2019-01-23T01:46:17.061Z,40.60
2019-01-23T01:46:49.564Z,43.40
2019-01-23T01:47:22.476Z,42.00
2019-01-23T01:47:54.984Z,44.25
2019-01-23T01:48:27.496Z,43.75
2019-01-23T01:49:00.002Z,42.83
2019-01-23T01:49:32.792Z,43.20
2019-01-23T01:50:08.128Z,45.70
2019-01-23T01:50:40.965Z,42.93
2019-01-23T01:51:13.478Z,45.90
2019-01-23T01:51:45.987Z,40.92
2019-01-23T01:52:18.793Z,42.00
2019-01-23T01:52:51.724Z,42.85
2019-01-23T01:53:24.222Z,43.55
2019-01-23T01:53:56.731Z,44.63
2019-01-23T01:54:29.233Z,43.02
2019-01-23T01:55:01.743Z,41.85
2019-01-23T01:55:34.233Z,43.30
2019-01-23T01:56:06.764Z,38.48
2019-01-23T01:56:39.265Z,41.80
2019-01-23T01:57:11.769Z,43.83
2019-01-23T01:57:44.569Z,41.40
2019-01-23T01:58:17.568Z,42.17
2019-01-23T01:58:50.072Z,42.13
2019-01-23T01:59:22.573Z,42.05
2019-01-23T01:59:55.073Z,43.63
2019-01-23T02:00:27.566Z,39.98
2019-01-23T02:01:00.892Z,42.17
2019-01-23T02:01:33.429Z,43.52
2019-01-23T02:02:06.640Z,43.95
2019-01-23T02:02:39.446Z,43.68
2019-01-23T02:03:15.447Z,41.55
2019-01-23T02:03:46.257Z,41.83
2019-01-23T02:04:19.345Z,40.67
2019-01-23T02:04:51.850Z,42.78
2019-01-23T02:05:24.344Z,44.88
2019-01-23T02:05:56.850Z,43.08
2019-01-23T02:06:29.460Z,42.38
2019-01-23T02:07:01.981Z,42.88
2019-01-23T02:07:34.477Z,43.50
2019-01-23T02:08:06.974Z,43.68
2019-01-23T02:08:39.885Z,43.35
2019-01-23T02:09:12.384Z,44.40
2019-01-23T02:09:45.597Z,44.75
2019-01-23T02:10:19.617Z,41.35
2019-01-23T02:10:52.127Z,43.35
2019-01-23T02:11:24.933Z,41.33
2019-01-23T02:11:58.196Z,42.50
2019-01-23T02:12:30.736Z,42.93
2019-01-23T02:13:03.636Z,44.50
2019-01-23T02:13:36.444Z,40.58
2019-01-23T02:14:09.377Z,44.38
2019-01-23T02:14:41.888Z,43.33
2019-01-23T02:15:16.880Z,43.28
2019-01-23T02:15:49.385Z,46.63
2019-01-23T02:16:22.288Z,45.43
2019-01-23T02:16:54.784Z,43.63
2019-01-23T02:17:27.296Z,44.03
2019-01-23T02:18:00.181Z,44.42
2019-01-23T02:18:32.684Z,44.38
2019-01-23T02:19:05.187Z,42.70
2019-01-23T02:19:37.685Z,43.78
2019-01-23T02:20:17.114Z,42.93
2019-01-23T02:20:49.998Z,45.98
2019-01-23T02:21:22.505Z,43.80
2019-01-23T02:21:55.004Z,44.60
2019-01-23T02:22:27.902Z,46.13
2019-01-23T02:23:00.395Z,46.65
2019-01-23T02:23:32.921Z,42.53
2019-01-23T02:24:05.766Z,46.77
2019-01-23T02:24:38.276Z,46.20
2019-01-23T02:25:11.084Z,44.25
2019-01-23T02:25:44.021Z,42.85
2019-01-23T02:26:16.966Z,45.75
2019-01-23T02:26:49.473Z,44.27
2019-01-23T02:27:21.972Z,43.60
2019-01-23T02:27:54.756Z,46.68
2019-01-23T02:28:27.256Z,43.25
2019-01-23T02:28:59.782Z,43.75
2019-01-23T02:29:32.280Z,44.83
2019-01-23T02:30:05.726Z,45.00
2019-01-23T02:30:38.228Z,43.52
2019-01-23T02:31:10.731Z,44.40
2019-01-23T02:31:43.241Z,44.73
2019-01-23T02:32:15.752Z,45.15
2019-01-23T02:32:48.403Z,45.63
2019-01-23T02:33:21.196Z,44.38
2019-01-23T02:33:53.692Z,43.10
2019-01-23T02:34:26.221Z,45.52
2019-01-23T02:34:58.724Z,45.95
2019-01-23T02:35:31.242Z,41.35
2019-01-23T02:36:04.329Z,45.25
2019-01-23T02:36:37.269Z,42.67
2019-01-23T02:37:10.141Z,46.88
2019-01-23T02:37:42.638Z,42.23
2019-01-23T02:38:15.137Z,44.27
2019-01-23T02:38:47.629Z,45.88
2019-01-23T02:39:20.471Z,42.93
2019-01-23T02:39:53.330Z,46.48
2019-01-23T02:40:25.821Z,42.65
2019-01-23T02:40:58.322Z,44.90
2019-01-23T02:41:31.157Z,45.78
2019-01-23T02:42:03.761Z,45.80
2019-01-23T02:42:36.256Z,41.83
2019-01-23T02:43:08.764Z,44.25
2019-01-23T02:43:41.261Z,43.95
2019-01-23T02:44:13.752Z,42.35
2019-01-23T02:44:46.243Z,45.88
2019-01-23T02:45:19.882Z,45.90
2019-01-23T02:45:52.384Z,45.83
2019-01-23T02:46:25.497Z,45.45
2019-01-23T02:46:58.289Z,43.23
2019-01-23T02:47:31.125Z,44.23
2019-01-23T02:48:03.628Z,45.20
2019-01-23T02:48:36.129Z,43.63
2019-01-23T02:49:08.626Z,43.25
2019-01-23T02:49:41.118Z,42.60
2019-01-23T02:50:14.725Z,43.50
2019-01-23T02:50:47.594Z,44.38
2019-01-23T02:51:20.092Z,45.75
2019-01-23T02:51:52.964Z,43.40
2019-01-23T02:52:25.456Z,42.83
2019-01-23T02:52:58.770Z,45.78
2019-01-23T02:53:31.272Z,44.10
2019-01-23T02:54:04.200Z,45.33
2019-01-23T02:54:36.731Z,42.40
2019-01-23T02:55:09.328Z,43.23
2019-01-23T02:55:42.140Z,43.42
2019-01-23T02:56:14.681Z,43.95
2019-01-23T02:56:47.838Z,43.92
2019-01-23T02:57:20.680Z,42.35
2019-01-23T02:57:53.472Z,42.38
2019-01-23T02:58:25.972Z,44.80
2019-01-23T02:58:58.462Z,45.05
2019-01-23T02:59:30.975Z,43.73
2019-01-23T03:00:05.709Z,48.23
2019-01-23T03:00:38.221Z,46.13
2019-01-23T03:01:10.885Z,43.15
2019-01-23T03:01:43.416Z,44.48
2019-01-23T03:02:15.920Z,46.60
2019-01-23T03:02:49.244Z,45.23
2019-01-23T03:03:21.752Z,44.27
2019-01-23T03:03:54.406Z,44.88
2019-01-23T03:04:27.197Z,45.63
2019-01-23T03:04:59.705Z,48.40
2019-01-23T03:05:32.205Z,46.75
2019-01-23T03:06:04.980Z,47.10
2019-01-23T03:06:37.476Z,44.98
2019-01-23T03:07:10.005Z,46.63
2019-01-23T03:07:42.894Z,44.90
2019-01-23T03:08:15.672Z,45.95
2019-01-23T03:08:48.179Z,46.48
2019-01-23T03:09:20.676Z,46.28
2019-01-23T03:09:53.190Z,47.62
2019-01-23T03:10:26.162Z,48.10
2019-01-23T03:10:58.653Z,49.08
2019-01-23T03:11:31.162Z,46.33
2019-01-23T03:12:04.086Z,48.05
2019-01-23T03:12:36.605Z,48.75
2019-01-23T03:13:09.100Z,47.15
2019-01-23T03:13:41.601Z,44.75
2019-01-23T03:14:14.400Z,48.45
2019-01-23T03:14:46.909Z,46.23
2019-01-23T03:15:19.429Z,44.60
2019-01-23T03:15:52.079Z,46.88
2019-01-23T03:16:24.585Z,47.20
2019-01-23T03:16:57.384Z,48.40
2019-01-23T03:17:30.227Z,48.55
2019-01-23T03:18:02.756Z,48.50
2019-01-23T03:18:35.558Z,47.95
2019-01-23T03:19:08.157Z,47.00
2019-01-23T03:19:40.665Z,49.15
2019-01-23T03:20:14.885Z,48.52
2019-01-23T03:20:47.862Z,48.95
2019-01-23T03:21:20.354Z,48.85
2019-01-23T03:21:53.225Z,47.58
2019-01-23T03:22:25.723Z,48.52
2019-01-23T03:22:58.517Z,48.33
2019-01-23T03:23:31.421Z,48.95
2019-01-23T03:24:03.935Z,46.60
2019-01-23T03:24:36.421Z,47.93
2019-01-23T03:25:10.276Z,49.38
2019-01-23T03:25:42.765Z,50.00
2019-01-23T03:26:15.561Z,50.70
2019-01-23T03:26:48.409Z,50.80
2019-01-23T03:27:20.919Z,51.65
2019-01-23T03:27:53.705Z,51.10
2019-01-23T03:28:26.210Z,50.60
2019-01-23T03:28:58.736Z,53.48
2019-01-23T03:29:31.241Z,49.15
2019-01-23T03:30:05.693Z,51.55
2019-01-23T03:30:38.573Z,52.60
2019-01-23T03:31:11.066Z,49.55
2019-01-23T03:31:44.022Z,52.75
2019-01-23T03:32:16.680Z,50.30
2019-01-23T03:32:49.208Z,53.45
2019-01-23T03:33:21.724Z,55.17
2019-01-23T03:33:54.600Z,52.80
2019-01-23T03:34:27.144Z,50.48
2019-01-23T03:34:59.965Z,51.55
2019-01-23T03:35:32.461Z,48.13
2019-01-23T03:36:05.429Z,48.30
2019-01-23T03:36:37.927Z,51.55
2019-01-23T03:37:10.430Z,49.88
2019-01-23T03:37:43.425Z,49.73
2019-01-23T03:38:15.932Z,52.85
2019-01-23T03:38:48.433Z,48.83
2019-01-23T03:39:21.255Z,49.50
2019-01-23T03:39:53.785Z,50.67
2019-01-23T03:40:26.284Z,51.53
2019-01-23T03:40:58.786Z,51.15
2019-01-23T03:41:31.487Z,48.10
2019-01-23T03:42:04.100Z,53.90
2019-01-23T03:42:36.600Z,48.42
2019-01-23T03:43:09.100Z,51.70
2019-01-23T03:43:41.997Z,47.95
2019-01-23T03:44:14.911Z,52.55
2019-01-23T03:44:47.410Z,52.80
2019-01-23T03:45:19.949Z,52.55
2019-01-23T03:45:52.456Z,54.60
2019-01-23T03:46:24.947Z,48.60
2019-01-23T03:46:57.445Z,51.08
2019-01-23T03:47:29.977Z,47.58
2019-01-23T03:48:02.490Z,52.88
2019-01-23T03:48:35.475Z,52.70
2019-01-23T03:49:07.972Z,54.58
2019-01-23T03:49:40.472Z,51.70
2019-01-23T03:50:14.940Z,51.70
2019-01-23T03:50:47.478Z,53.10
2019-01-23T03:51:20.642Z,52.17
2019-01-23T03:51:53.151Z,50.70
2019-01-23T03:52:25.652Z,54.08
2019-01-23T03:52:58.245Z,50.80
2019-01-23T03:53:30.752Z,49.75
2019-01-23T03:54:03.553Z,51.42
2019-01-23T03:54:36.060Z,53.92
2019-01-23T03:55:09.589Z,51.90
2019-01-23T03:55:42.098Z,55.50
2019-01-23T03:56:15.048Z,53.05
2019-01-23T03:56:47.917Z,52.85
2019-01-23T03:57:20.421Z,56.10
2019-01-23T03:57:52.925Z,52.17
2019-01-23T03:58:25.451Z,51.35
2019-01-23T03:58:58.369Z,52.65
2019-01-23T03:59:32.234Z,55.35
2019-01-23T04:00:06.393Z,55.08
2019-01-23T04:00:39.344Z,55.30
2019-01-23T04:01:11.845Z,53.52
2019-01-23T04:01:44.377Z,54.50
2019-01-23T04:02:16.902Z,50.70
2019-01-23T04:02:50.923Z,51.88
2019-01-23T04:03:23.424Z,52.05
2019-01-23T04:03:55.938Z,54.00
2019-01-23T04:04:28.425Z,54.70
2019-01-23T04:05:00.925Z,54.27
2019-01-23T04:05:33.429Z,52.38
2019-01-23T04:06:06.614Z,55.38
2019-01-23T04:06:39.213Z,56.90
2019-01-23T04:07:12.112Z,56.88
2019-01-23T04:07:45.199Z,57.65
2019-01-23T04:08:17.692Z,53.00
2019-01-23T04:08:50.549Z,54.38
2019-01-23T04:09:23.050Z,56.98
2019-01-23T04:09:56.082Z,57.35
2019-01-23T04:10:28.589Z,55.88
2019-01-23T04:11:01.081Z,55.10
2019-01-23T04:11:33.591Z,54.83
2019-01-23T04:12:06.057Z,54.48
2019-01-23T04:12:38.942Z,57.88
2019-01-23T04:13:11.417Z,58.05
2019-01-23T04:13:43.898Z,58.28
2019-01-23T04:14:16.378Z,58.00
2019-01-23T04:14:48.847Z,57.10
2019-01-23T04:15:21.323Z,61.08
2019-01-23T04:15:54.780Z,57.15
2019-01-23T04:16:27.267Z,60.92
2019-01-23T04:17:00.103Z,60.03
2019-01-23T04:17:32.596Z,62.10
2019-01-23T04:18:05.087Z,57.98
2019-01-23T04:18:37.564Z,59.80
2019-01-23T04:19:10.388Z,57.45
2019-01-23T04:19:42.868Z,59.13
2019-01-23T04:20:17.241Z,61.08
2019-01-23T04:20:49.768Z,62.85
2019-01-23T04:21:22.744Z,62.98
2019-01-23T04:21:55.521Z,61.50
2019-01-23T04:22:27.996Z,60.67
2019-01-23T04:23:00.477Z,64.60
2019-01-23T04:23:32.980Z,59.15
2019-01-23T04:24:05.468Z,59.73
2019-01-23T04:24:37.939Z,60.78
2019-01-23T04:25:10.539Z,64.37
2019-01-23T04:25:46.833Z,60.55
2019-01-23T04:26:19.304Z,61.02
2019-01-23T04:26:51.796Z,64.17
2019-01-23T04:27:24.277Z,60.30
2019-01-23T04:27:56.771Z,61.05
2019-01-23T04:28:29.235Z,64.62
2019-01-23T04:29:01.743Z,62.03
2019-01-23T04:29:39.511Z,64.72
2019-01-23T04:30:11.679Z,61.33
2019-01-23T04:30:44.679Z,61.00
2019-01-23T04:31:17.153Z,57.48
2019-01-23T04:31:49.957Z,61.85
2019-01-23T04:32:22.434Z,59.48
2019-01-23T04:32:54.908Z,63.38
2019-01-23T04:33:27.382Z,64.40
2019-01-23T04:33:59.848Z,65.52
2019-01-23T04:34:32.360Z,62.13
2019-01-23T04:35:05.032Z,69.12
2019-01-23T04:35:37.529Z,62.30
2019-01-23T04:36:10.012Z,64.15
2019-01-23T04:36:42.819Z,65.70
2019-01-23T04:37:15.297Z,67.67
2019-01-23T04:37:48.256Z,66.82
2019-01-23T04:38:21.120Z,62.53
2019-01-23T04:38:53.893Z,62.60
2019-01-23T04:39:26.380Z,65.67
2019-01-23T04:39:59.212Z,66.07
2019-01-23T04:40:31.696Z,63.92
2019-01-23T04:41:04.179Z,62.75
2019-01-23T04:41:37.016Z,64.85
2019-01-23T04:42:09.501Z,66.20
2019-01-23T04:42:42.009Z,66.20
2019-01-23T04:43:14.807Z,65.40
2019-01-23T04:43:47.300Z,66.02
2019-01-23T04:44:20.268Z,70.22
2019-01-23T04:44:52.752Z,65.97
2019-01-23T04:45:25.252Z,66.90
2019-01-23T04:45:57.727Z,66.75
2019-01-23T04:46:30.206Z,65.90
2019-01-23T04:47:02.687Z,65.17
2019-01-23T04:47:36.890Z,67.32
2019-01-23T04:48:09.377Z,63.58
2019-01-23T04:48:42.180Z,66.15
2019-01-23T04:49:14.648Z,64.05
2019-01-23T04:49:47.125Z,65.22
2019-01-23T04:50:19.612Z,66.30
2019-01-23T04:51:17.687Z,62.73
2019-01-23T04:51:58.975Z,63.23
2019-01-23T04:52:39.115Z,64.58
2019-01-23T04:53:16.194Z,64.10
2019-01-23T04:53:49.063Z,66.17
2019-01-23T04:54:21.551Z,63.92
2019-01-23T04:54:54.023Z,67.10
2019-01-23T04:55:26.508Z,67.53
2019-01-23T04:55:59.420Z,67.65
2019-01-23T04:56:32.492Z,69.35
2019-01-23T04:57:05.271Z,67.70
2019-01-23T04:57:38.143Z,69.42
2019-01-23T04:58:10.632Z,67.05
2019-01-23T04:58:43.116Z,66.28
2019-01-23T04:59:15.588Z,67.62
2019-01-23T04:59:48.060Z,70.42
2019-01-23T05:00:23.208Z,69.20
2019-01-23T05:00:56.080Z,68.70
2019-01-23T05:01:28.942Z,67.42
2019-01-23T05:02:01.861Z,68.90
2019-01-23T05:02:34.653Z,73.02
2019-01-23T05:03:07.213Z,69.70
2019-01-23T05:03:39.687Z,71.42
2019-01-23T05:04:12.202Z,73.05
2019-01-23T05:04:44.713Z,74.85
2019-01-23T05:05:17.177Z,71.95
2019-01-23T05:05:50.044Z,71.60
2019-01-23T05:06:22.516Z,69.03
2019-01-23T05:06:55.010Z,72.25
2019-01-23T05:07:27.887Z,71.47
2019-01-23T05:08:00.368Z,73.65
2019-01-23T05:08:32.858Z,75.42
2019-01-23T05:09:08.241Z,73.20
2019-01-23T05:09:40.707Z,76.95
2019-01-23T05:10:13.189Z,74.87
2019-01-23T05:10:45.663Z,74.07
2019-01-23T05:11:18.536Z,72.70
2019-01-23T05:11:51.340Z,78.37
2019-01-23T05:12:23.840Z,73.33
2019-01-23T05:12:56.360Z,74.60
2019-01-23T05:13:28.823Z,76.33
2019-01-23T05:14:02.207Z,76.92
2019-01-23T05:14:36.251Z,74.77
2019-01-23T05:15:08.841Z,76.42
2019-01-23T05:15:41.316Z,81.57
2019-01-23T05:16:13.781Z,76.67
2019-01-23T05:16:46.559Z,78.45
2019-01-23T05:17:19.027Z,78.07
2019-01-23T05:17:51.517Z,76.50
2019-01-23T05:18:24.027Z,82.92
2019-01-23T05:18:56.909Z,77.97
2019-01-23T05:19:29.677Z,77.92
2019-01-23T05:20:02.294Z,77.92
2019-01-23T05:20:40.511Z,80.95
2019-01-23T05:21:12.991Z,76.00
2019-01-23T05:21:45.476Z,80.25
2019-01-23T05:22:18.327Z,78.57
2019-01-23T05:22:50.869Z,76.30
2019-01-23T05:23:23.343Z,79.10
2019-01-23T05:23:55.860Z,77.00
2019-01-23T05:24:28.616Z,78.50
2019-01-23T05:25:01.100Z,81.72
2019-01-23T05:25:33.584Z,80.30
2019-01-23T05:26:06.416Z,77.90
2019-01-23T05:26:39.176Z,83.40
2019-01-23T05:27:11.652Z,82.22
2019-01-23T05:27:44.409Z,80.00
2019-01-23T05:28:17.247Z,79.42
2019-01-23T05:28:50.119Z,84.67
2019-01-23T05:29:22.752Z,80.50
2019-01-23T05:29:55.533Z,79.42
2019-01-23T05:30:28.002Z,83.03
2019-01-23T05:31:00.475Z,86.20
2019-01-23T05:31:32.971Z,85.55
2019-01-23T05:32:05.971Z,77.40
2019-01-23T05:32:38.778Z,84.55
2019-01-23T05:33:11.243Z,83.27
2019-01-23T05:33:43.725Z,83.15
2019-01-23T05:34:16.207Z,81.72
2019-01-23T05:34:48.985Z,85.03
2019-01-23T05:35:21.796Z,82.42
2019-01-23T05:35:54.555Z,88.30
2019-01-23T05:36:27.328Z,88.92
2019-01-23T05:36:59.808Z,86.22
2019-01-23T05:37:32.277Z,83.72
2019-01-23T05:38:04.761Z,89.97
2019-01-23T05:38:37.231Z,87.10
2019-01-23T05:39:09.699Z,85.67
2019-01-23T05:39:42.506Z,87.22
2019-01-23T05:40:15.544Z,84.07
2019-01-23T05:40:48.354Z,84.75
2019-01-23T05:41:20.834Z,88.72
2019-01-23T05:41:53.632Z,82.35
2019-01-23T05:42:26.111Z,86.22
2019-01-23T05:42:58.909Z,84.65
2019-01-23T05:43:31.375Z,85.50
2019-01-23T05:44:03.955Z,92.00
2019-01-23T05:44:36.436Z,86.22
2019-01-23T05:45:10.613Z,91.47
2019-01-23T05:45:43.193Z,93.58
2019-01-23T05:46:16.032Z,90.70
2019-01-23T05:46:48.506Z,88.35
2019-01-23T05:47:20.988Z,96.05
2019-01-23T05:47:53.820Z,87.95
2019-01-23T05:48:26.301Z,91.00
2019-01-23T05:48:58.819Z,87.27
2019-01-23T05:49:31.296Z,92.05
2019-01-23T05:50:05.445Z,87.22
2019-01-23T05:50:37.923Z,89.67
2019-01-23T05:51:10.428Z,91.40
2019-01-23T05:51:42.900Z,92.33
2019-01-23T05:52:15.374Z,93.97
2019-01-23T05:52:48.411Z,91.78
2019-01-23T05:53:21.203Z,93.75
2019-01-23T05:53:53.668Z,90.60
2019-01-23T05:54:26.147Z,92.85
2019-01-23T05:54:59.016Z,92.08
2019-01-23T05:55:31.502Z,93.25
2019-01-23T05:56:04.151Z,91.87
2019-01-23T05:56:36.648Z,91.57
2019-01-23T05:57:09.135Z,95.92
2019-01-23T05:57:42.009Z,91.12
2019-01-23T05:58:14.475Z,98.33
2019-01-23T05:58:46.944Z,95.30
2019-01-23T05:59:19.923Z,91.53
2019-01-23T05:59:52.414Z,95.50
2019-01-23T06:00:24.883Z,94.35
2019-01-23T06:00:57.364Z,96.25
2019-01-23T06:01:29.836Z,97.02
2019-01-23T06:02:02.351Z,99.72
2019-01-23T06:02:35.280Z,95.70
2019-01-23T06:03:07.751Z,96.70
2019-01-23T06:03:40.517Z,99.45
2019-01-23T06:04:12.996Z,99.83
2019-01-23T06:04:45.842Z,95.75
2019-01-23T06:05:18.797Z,100.05
2019-01-23T06:05:51.643Z,97.50
2019-01-23T06:06:24.587Z,93.33
2019-01-23T06:06:57.066Z,97.95
2019-01-23T06:07:29.585Z,98.12
2019-01-23T06:08:02.353Z,97.92
2019-01-23T06:08:35.111Z,94.70
2019-01-23T06:09:08.351Z,95.97
2019-01-23T06:09:41.193Z,97.78
2019-01-23T06:10:13.769Z,99.97
2019-01-23T06:10:46.523Z,100.90
2019-01-23T06:11:18.994Z,101.58
2019-01-23T06:11:51.476Z,103.90
2019-01-23T06:12:23.977Z,100.45
2019-01-23T06:12:56.483Z,100.53
2019-01-23T06:13:28.959Z,98.33
2019-01-23T06:14:01.427Z,101.72
2019-01-23T06:14:34.341Z,101.62
2019-01-23T06:15:07.836Z,103.53
2019-01-23T06:15:40.720Z,102.30
2019-01-23T06:16:13.199Z,101.07
2019-01-23T06:16:45.675Z,96.70
2019-01-23T06:17:18.176Z,102.97
2019-01-23T06:17:50.643Z,104.55
2019-01-23T06:18:23.172Z,104.12
2019-01-23T06:18:56.028Z,102.80
2019-01-23T06:19:28.507Z,101.85
2019-01-23T06:20:01.500Z,100.72
2019-01-23T06:20:33.940Z,98.70
2019-01-23T06:21:06.863Z,107.15
2019-01-23T06:21:39.544Z,102.95
2019-01-23T06:22:12.395Z,104.47
2019-01-23T06:22:44.971Z,101.50
2019-01-23T06:23:17.570Z,102.25
2019-01-23T06:23:50.208Z,101.25
2019-01-23T06:24:22.769Z,106.12
2019-01-23T06:24:55.299Z,101.12
2019-01-23T06:25:28.156Z,100.12
2019-01-23T06:26:00.627Z,105.43
2019-01-23T06:26:33.168Z,98.95
2019-01-23T06:27:06.941Z,102.35
2019-01-23T06:27:39.808Z,103.35
2019-01-23T06:28:12.639Z,103.40
2019-01-23T06:28:45.128Z,103.90
2019-01-23T06:29:18.079Z,101.18
2019-01-23T06:29:50.546Z,104.27
2019-01-23T06:30:24.230Z,100.22
2019-01-23T06:30:56.704Z,103.45
2019-01-23T06:31:29.465Z,105.45
2019-01-23T06:32:02.219Z,101.55
2019-01-23T06:32:34.687Z,99.45
2019-01-23T06:33:07.153Z,103.83
2019-01-23T06:33:39.901Z,101.82
2019-01-23T06:34:12.380Z,103.60
2019-01-23T06:34:44.892Z,105.75
2019-01-23T06:35:17.357Z,100.72
2019-01-23T06:35:49.897Z,107.32
2019-01-23T06:36:22.368Z,100.02
2019-01-23T06:36:54.843Z,107.97
2019-01-23T06:37:27.312Z,106.63
2019-01-23T06:37:59.799Z,100.00
2019-01-23T06:38:32.267Z,105.95
2019-01-23T06:39:07.071Z,104.05
2019-01-23T06:39:39.980Z,103.87
2019-01-23T06:40:13.839Z,104.78
2019-01-23T06:40:46.308Z,107.37
2019-01-23T06:41:18.779Z,105.67
2019-01-23T06:41:51.393Z,106.78
2019-01-23T06:42:23.871Z,106.20
2019-01-23T06:42:56.356Z,105.85
2019-01-23T06:43:29.187Z,105.35
2019-01-23T06:44:01.643Z,100.60
2019-01-23T06:44:34.456Z,104.95
2019-01-23T06:45:08.752Z,104.25
2019-01-23T06:45:41.860Z,99.47
2019-01-23T06:46:14.668Z,103.15
2019-01-23T06:46:47.140Z,102.80
2019-01-23T06:47:19.628Z,99.92
2019-01-23T06:47:52.468Z,100.10
2019-01-23T06:48:24.936Z,102.95
2019-01-23T06:48:57.751Z,107.75
2019-01-23T06:49:30.568Z,104.43
2019-01-23T06:50:04.283Z,104.87
2019-01-23T06:50:37.152Z,106.12
2019-01-23T06:51:09.692Z,108.17
2019-01-23T06:51:42.866Z,105.30
2019-01-23T06:52:15.627Z,103.70
2019-01-23T06:52:48.111Z,106.37
2019-01-23T06:53:21.268Z,108.47
2019-01-23T06:53:54.138Z,106.63
2019-01-23T06:54:26.612Z,104.75
2019-01-23T06:54:59.086Z,106.80
2019-01-23T06:55:32.176Z,106.75
2019-01-23T06:56:04.643Z,101.78
2019-01-23T06:56:37.162Z,103.67
2019-01-23T06:57:09.655Z,107.85
2019-01-23T06:57:42.492Z,104.80
2019-01-23T06:58:15.672Z,108.05
2019-01-23T06:58:48.144Z,100.85
2019-01-23T06:59:20.616Z,105.27
2019-01-23T06:59:53.096Z,97.95
2019-01-23T07:00:25.779Z,104.47
2019-01-23T07:00:58.251Z,105.00
2019-01-23T07:01:30.741Z,103.42